createdAt,value
2023-03-01T00:00:09.468Z,0.40
2023-03-01T00:02:39.556Z,0.40
2023-03-01T00:05:08.633Z,0.30
2023-03-01T00:07:36.841Z,0.40
2023-03-01T00:10:06.413Z,0.40
2023-03-01T00:12:34.493Z,0.40
2023-03-01T00:15:05.837Z,0.40
2023-03-01T00:17:33.876Z,0.40
2023-03-01T00:20:09.269Z,0.50
2023-03-01T00:22:38.041Z,0.47
2023-03-01T00:25:09.169Z,0.40
2023-03-01T00:27:40.548Z,0.40
2023-03-01T00:30:10.449Z,0.50
2023-03-01T00:32:38.785Z,0.50
2023-03-01T00:35:08.785Z,0.40
2023-03-01T00:37:37.820Z,0.50
2023-03-01T00:40:07.224Z,0.40
2023-03-01T00:42:35.237Z,0.33
2023-03-01T00:45:03.534Z,0.40
2023-03-01T00:47:31.802Z,0.30
2023-03-01T00:49:59.815Z,0.40
2023-03-01T00:52:29.511Z,0.40
2023-03-01T00:54:58.825Z,0.53
2023-03-01T00:57:27.156Z,0.50
2023-03-01T00:59:54.971Z,0.50
2023-03-01T01:02:24.092Z,0.50
2023-03-01T01:04:53.709Z,0.40
2023-03-01T01:07:22.091Z,0.57
2023-03-01T01:09:51.541Z,0.40
2023-03-01T01:12:19.519Z,0.50
2023-03-01T01:14:47.803Z,0.40
2023-03-01T01:17:15.862Z,0.40
2023-03-01T01:19:44.738Z,0.50
2023-03-01T01:22:12.747Z,0.40
2023-03-01T01:24:40.726Z,0.40
2023-03-01T01:27:10.157Z,0.40
2023-03-01T01:29:38.817Z,0.40
2023-03-01T01:32:07.344Z,0.40
2023-03-01T01:34:35.363Z,0.33
2023-03-01T01:37:05.008Z,0.57
2023-03-01T01:39:32.845Z,0.40
2023-03-01T01:42:02.016Z,0.50
2023-03-01T01:44:32.783Z,0.40
2023-03-01T01:47:04.197Z,0.50
2023-03-01T01:49:37.631Z,0.40
2023-03-01T01:52:11.580Z,0.40
2023-03-01T01:54:46.984Z,0.40
2023-03-01T01:57:18.590Z,0.50
2023-03-01T01:59:51.766Z,0.47
2023-03-01T02:02:20.947Z,0.50
2023-03-01T02:04:57.754Z,0.50
2023-03-01T02:07:26.791Z,0.40
2023-03-01T02:09:55.776Z,0.40
2023-03-01T02:12:26.866Z,0.30
2023-03-01T02:15:05.142Z,0.47
2023-03-01T02:17:33.767Z,0.40
2023-03-01T02:20:12.424Z,0.50
2023-03-01T02:22:41.025Z,0.50
2023-03-01T02:25:21.425Z,0.50
2023-03-01T02:27:58.693Z,0.67
2023-03-01T02:30:58.697Z,0.50
2023-03-01T02:33:28.201Z,0.43
2023-03-01T02:36:04.594Z,0.40
2023-03-01T02:38:53.802Z,0.40
2023-03-01T02:41:31.811Z,0.40
2023-03-01T02:44:17.233Z,0.40
2023-03-01T02:47:07.554Z,0.50
2023-03-01T02:49:40.505Z,0.47
2023-03-01T02:52:53.106Z,0.40
2023-03-01T02:55:21.203Z,0.50
2023-03-01T02:57:51.901Z,0.60
2023-03-01T03:00:26.378Z,0.33
2023-03-01T03:03:26.959Z,0.40
2023-03-01T03:05:56.363Z,0.40
2023-03-01T03:08:29.021Z,0.40
2023-03-01T03:11:00.600Z,0.43
2023-03-01T03:13:53.305Z,0.50
2023-03-01T03:16:27.016Z,0.60
2023-03-01T03:19:05.944Z,0.40
2023-03-01T03:21:34.351Z,0.40
2023-03-01T03:24:02.241Z,0.40
2023-03-01T03:26:30.439Z,0.40
2023-03-01T03:28:59.193Z,0.40
2023-03-01T03:31:27.353Z,0.47
2023-03-01T03:33:55.666Z,0.40
2023-03-01T03:36:27.702Z,0.40
2023-03-01T03:38:56.609Z,0.40
2023-03-01T03:41:24.452Z,0.40
2023-03-01T03:43:52.710Z,0.60
2023-03-01T03:46:22.822Z,0.43
2023-03-01T03:48:51.043Z,0.40
2023-03-01T03:51:28.501Z,0.40
2023-03-01T03:53:57.899Z,0.47
2023-03-01T03:57:12.659Z,0.50
2023-03-01T04:00:12.549Z,0.50
2023-03-01T04:02:45.034Z,0.40
2023-03-01T04:05:15.250Z,0.47
2023-03-01T04:07:44.921Z,0.40
2023-03-01T04:10:17.106Z,0.40
2023-03-01T04:12:46.630Z,0.40
2023-03-01T04:15:19.523Z,0.40
2023-03-01T04:17:48.919Z,0.57
2023-03-01T04:20:19.073Z,0.60
2023-03-01T04:22:47.917Z,0.60
2023-03-01T04:25:17.886Z,0.40
2023-03-01T04:27:45.872Z,0.40
2023-03-01T04:30:14.567Z,0.50
2023-03-01T04:32:44.632Z,0.40
2023-03-01T04:35:15.233Z,0.40
2023-03-01T04:37:43.282Z,0.40
2023-03-01T04:40:17.250Z,0.40
2023-03-01T04:42:48.799Z,0.40
2023-03-01T04:45:16.836Z,0.40
2023-03-01T04:47:47.017Z,0.40
2023-03-01T04:50:16.985Z,0.50
2023-03-01T04:52:45.284Z,0.40
2023-03-01T04:55:14.683Z,0.60
2023-03-01T04:57:43.954Z,0.50
2023-03-01T05:00:25.153Z,0.50
2023-03-01T05:02:55.509Z,0.50
2023-03-01T05:05:26.927Z,0.40
2023-03-01T05:07:59.718Z,0.50
2023-03-01T05:10:30.198Z,0.50
2023-03-01T05:12:59.801Z,0.60
2023-03-01T05:15:31.061Z,0.50
2023-03-01T05:18:02.315Z,0.40
2023-03-01T05:20:32.618Z,0.40
2023-03-01T05:23:06.333Z,0.50
2023-03-01T05:25:41.061Z,0.43
2023-03-01T05:28:11.910Z,0.40
2023-03-01T05:30:41.963Z,0.70
2023-03-01T05:33:14.399Z,0.50
2023-03-01T05:35:43.613Z,0.40
2023-03-01T05:38:14.351Z,0.50
2023-03-01T05:40:44.542Z,0.60
2023-03-01T05:43:14.757Z,0.40
2023-03-01T05:45:45.447Z,0.50
2023-03-01T05:48:14.389Z,0.50
2023-03-01T05:50:44.240Z,0.40
2023-03-01T05:53:14.301Z,0.40
2023-03-01T05:55:43.712Z,0.40
2023-03-01T05:58:15.025Z,0.33
2023-03-01T06:00:45.394Z,0.50
2023-03-01T06:03:14.857Z,0.60
2023-03-01T06:05:43.608Z,0.40
2023-03-01T06:08:12.510Z,0.50
2023-03-01T06:10:43.220Z,0.43
2023-03-01T06:13:11.524Z,0.40
2023-03-01T06:15:40.466Z,0.43
2023-03-01T06:18:13.149Z,0.50
2023-03-01T06:20:43.104Z,0.43
2023-03-01T06:23:11.229Z,0.40
2023-03-01T06:25:39.489Z,0.50
2023-03-01T06:28:07.310Z,0.40
2023-03-01T06:30:36.166Z,0.40
2023-03-01T06:33:05.134Z,0.40
2023-03-01T06:35:36.088Z,0.43
2023-03-01T06:38:06.353Z,0.50
2023-03-01T06:40:37.326Z,0.40
2023-03-01T06:43:10.121Z,0.50
2023-03-01T06:45:38.932Z,0.47
2023-03-01T06:48:12.834Z,0.40
2023-03-01T06:50:51.060Z,0.50
2023-03-01T06:53:25.134Z,0.43
2023-03-01T06:55:57.320Z,0.50
2023-03-01T06:58:32.843Z,0.50
2023-03-01T07:01:01.016Z,0.40
2023-03-01T07:03:51.627Z,0.50
2023-03-01T07:06:23.327Z,0.50
2023-03-01T07:08:54.412Z,0.40
2023-03-01T07:11:24.128Z,0.40
2023-03-01T07:13:53.290Z,0.50
2023-03-01T07:16:21.532Z,0.40
2023-03-01T07:18:50.571Z,0.40
2023-03-01T07:21:18.576Z,0.40
2023-03-01T07:23:49.759Z,0.40
2023-03-01T07:26:17.995Z,0.40
2023-03-01T07:28:46.122Z,0.50
2023-03-01T07:31:17.057Z,0.40
2023-03-01T07:33:46.186Z,0.40
2023-03-01T07:36:15.138Z,0.40
2023-03-01T07:38:43.243Z,0.47
2023-03-01T07:41:12.712Z,0.33
2023-03-01T07:43:40.728Z,0.40
2023-03-01T07:46:08.857Z,0.40
2023-03-01T07:48:37.745Z,0.40
2023-03-01T07:51:10.372Z,0.43
2023-03-01T07:53:39.522Z,0.40
2023-03-01T07:56:11.620Z,0.30
2023-03-01T07:58:43.113Z,0.40
2023-03-01T08:01:17.036Z,0.30
2023-03-01T08:03:45.950Z,0.40
2023-03-01T08:06:15.822Z,0.40
2023-03-01T08:08:43.943Z,0.40
2023-03-01T08:11:14.059Z,0.40
2023-03-01T08:13:45.385Z,0.40
2023-03-01T08:16:17.257Z,0.40
2023-03-01T08:18:45.457Z,0.30
2023-03-01T08:21:15.878Z,0.20
2023-03-01T08:23:44.653Z,0.20
2023-03-01T08:26:17.030Z,0.20
2023-03-01T08:28:48.949Z,0.20
2023-03-01T08:31:22.465Z,0.20
2023-03-01T08:33:56.482Z,0.30
2023-03-01T08:36:25.080Z,0.20
2023-03-01T08:38:56.421Z,0.20
2023-03-01T08:41:24.986Z,0.20
2023-03-01T08:43:59.805Z,0.20
2023-03-01T08:46:33.831Z,0.20
2023-03-01T08:49:06.168Z,0.20
2023-03-01T08:51:37.790Z,0.20
2023-03-01T08:54:13.344Z,0.30
2023-03-01T08:56:41.736Z,0.30
2023-03-01T08:59:13.641Z,0.30
2023-03-01T09:01:44.253Z,0.30
2023-03-01T09:04:13.390Z,0.30
2023-03-01T09:06:41.923Z,0.20
2023-03-01T09:09:19.058Z,0.30
2023-03-01T09:11:52.419Z,0.20
2023-03-01T09:14:21.845Z,0.30
2023-03-01T09:16:49.952Z,0.30
2023-03-01T09:19:18.056Z,0.30
2023-03-01T09:21:53.355Z,0.20
2023-03-01T09:24:23.907Z,0.23
2023-03-01T09:26:55.753Z,0.20
2023-03-01T09:29:27.006Z,0.30
2023-03-01T09:31:58.795Z,0.30
2023-03-01T09:34:27.670Z,0.33
2023-03-01T09:36:56.404Z,0.30
2023-03-01T09:39:28.184Z,0.20
2023-03-01T09:42:05.776Z,0.20
2023-03-01T09:44:40.290Z,0.30
2023-03-01T09:47:14.976Z,0.30
2023-03-01T09:49:49.685Z,0.20
2023-03-01T09:52:26.126Z,0.30
2023-03-01T09:55:00.417Z,0.20
2023-03-01T09:57:34.889Z,0.30
2023-03-01T10:00:27.016Z,0.30
2023-03-01T10:03:30.018Z,0.20
2023-03-01T10:06:07.201Z,0.30
2023-03-01T10:08:46.329Z,0.30
2023-03-01T10:11:25.659Z,0.20
2023-03-01T10:14:03.642Z,0.20
2023-03-01T10:16:47.201Z,0.20
2023-03-01T10:19:24.036Z,0.20
2023-03-01T10:21:53.456Z,0.20
2023-03-01T10:24:24.724Z,0.20
2023-03-01T10:26:58.402Z,0.23
2023-03-01T10:29:33.348Z,0.20
2023-03-01T10:32:08.789Z,0.20
2023-03-01T10:34:47.954Z,0.20
2023-03-01T10:37:20.390Z,0.20
2023-03-01T10:40:01.107Z,0.20
2023-03-01T10:42:34.307Z,0.20
2023-03-01T10:45:29.722Z,0.20
2023-03-01T10:48:11.465Z,0.20
2023-03-01T10:50:42.442Z,0.20
2023-03-01T10:53:27.561Z,0.20
2023-03-01T10:56:09.609Z,0.20
2023-03-01T10:58:41.988Z,0.20
2023-03-01T11:01:28.853Z,0.20
2023-03-01T11:04:15.552Z,0.20
2023-03-01T11:06:44.376Z,0.20
2023-03-01T11:09:17.292Z,0.20
2023-03-01T11:11:45.426Z,0.20
2023-03-01T11:14:26.929Z,0.20
2023-03-01T11:17:04.553Z,0.20
2023-03-01T11:19:34.823Z,0.30
2023-03-01T11:22:13.091Z,0.20
2023-03-01T11:25:10.600Z,0.23
2023-03-01T11:28:07.788Z,0.20
2023-03-01T11:30:43.954Z,0.20
2023-03-01T11:33:22.623Z,0.20
2023-03-01T11:36:06.881Z,0.20
2023-03-01T11:39:19.821Z,0.20
2023-03-01T11:41:53.439Z,0.20
2023-03-01T11:44:29.727Z,0.20
2023-03-01T11:47:19.818Z,0.20
2023-03-01T11:50:07.086Z,0.20
2023-03-01T11:52:49.613Z,0.20
2023-03-01T11:55:32.301Z,0.20
2023-03-01T11:58:17.642Z,0.20
2023-03-01T12:01:06.973Z,0.20
2023-03-01T12:03:56.326Z,0.20
2023-03-01T12:06:56.085Z,0.20
2023-03-01T12:09:50.613Z,0.20
2023-03-01T12:12:38.962Z,0.20
2023-03-01T12:15:40.296Z,0.20
2023-03-01T12:18:53.864Z,0.40
2023-03-01T12:21:36.063Z,0.20
2023-03-01T12:24:30.380Z,0.20
2023-03-01T12:27:25.326Z,0.20
2023-03-01T12:30:02.124Z,0.20
2023-03-01T12:32:49.535Z,0.20
2023-03-01T12:35:56.611Z,0.20
2023-03-01T12:38:39.036Z,0.20
2023-03-01T12:41:43.838Z,0.30
2023-03-01T12:44:37.066Z,0.20
2023-03-01T12:47:22.442Z,0.20
2023-03-01T12:49:57.868Z,0.20
2023-03-01T12:52:34.050Z,0.20
2023-03-01T12:55:08.817Z,0.20
2023-03-01T12:57:43.236Z,0.20
2023-03-01T13:00:31.511Z,0.20
2023-03-01T13:03:07.513Z,0.20
2023-03-01T13:05:45.350Z,0.30
2023-03-01T13:08:24.834Z,0.20
2023-03-01T13:10:58.811Z,0.20
2023-03-01T13:13:29.746Z,0.20
2023-03-01T13:16:43.885Z,0.20
2023-03-01T13:19:17.729Z,0.20
2023-03-01T13:21:49.635Z,0.20
2023-03-01T13:24:40.654Z,0.20
2023-03-01T13:27:31.443Z,0.20
2023-03-01T13:30:45.195Z,0.30
2023-03-01T13:33:49.351Z,0.20
2023-03-01T13:36:49.123Z,0.20
2023-03-01T13:39:34.712Z,0.20
2023-03-01T13:42:03.986Z,0.20
2023-03-01T13:44:37.994Z,0.30
2023-03-01T13:47:18.618Z,0.20
2023-03-01T13:49:54.478Z,0.20
2023-03-01T13:52:40.345Z,0.20
2023-03-01T13:55:21.614Z,0.20
2023-03-01T13:57:56.940Z,0.20
2023-03-01T14:00:35.574Z,0.20
2023-03-01T14:03:15.160Z,0.17
2023-03-01T14:06:12.506Z,0.20
2023-03-01T14:08:50.448Z,0.30
2023-03-01T14:12:05.797Z,0.20
2023-03-01T14:14:43.724Z,0.20
2023-03-01T14:17:42.946Z,0.20
2023-03-01T14:20:25.922Z,0.20
2023-03-01T14:22:59.047Z,0.20
2023-03-01T14:25:33.053Z,0.20
2023-03-01T14:28:06.413Z,0.20
2023-03-01T14:30:45.673Z,0.20
2023-03-01T14:33:27.166Z,0.20
2023-03-01T14:35:59.601Z,0.20
2023-03-01T14:38:37.304Z,0.20
2023-03-01T14:41:11.930Z,0.20
2023-03-01T14:43:43.538Z,0.20
2023-03-01T14:46:22.481Z,0.20
2023-03-01T14:48:54.385Z,0.20
2023-03-01T14:51:24.177Z,0.20
2023-03-01T14:53:57.596Z,0.20
2023-03-01T14:56:27.264Z,0.20
2023-03-01T14:59:03.304Z,0.20
2023-03-01T15:01:41.975Z,0.20
2023-03-01T15:04:14.752Z,0.20
2023-03-01T15:06:44.760Z,0.20
2023-03-01T15:09:18.059Z,0.20
2023-03-01T15:11:46.981Z,0.20
2023-03-01T15:14:30.456Z,0.20
2023-03-01T15:16:59.907Z,0.20
2023-03-01T15:19:30.967Z,0.10
2023-03-01T15:22:13.886Z,0.20
2023-03-01T15:24:43.394Z,0.20
2023-03-01T15:27:19.754Z,0.20
2023-03-01T15:29:53.622Z,0.23
2023-03-01T15:32:30.368Z,0.20
2023-03-01T15:35:02.280Z,0.20
2023-03-01T15:37:48.938Z,0.20
2023-03-01T15:40:32.472Z,0.20
2023-03-01T15:43:01.721Z,0.20
2023-03-01T15:45:38.814Z,0.20
2023-03-01T15:48:17.431Z,0.20
2023-03-01T15:51:00.281Z,0.20
2023-03-01T15:53:54.350Z,0.20
2023-03-01T15:56:37.355Z,0.20
2023-03-01T15:59:08.226Z,0.20
2023-03-01T16:01:36.572Z,0.30
2023-03-01T16:04:04.862Z,0.20
2023-03-01T16:06:33.471Z,0.30
2023-03-01T16:09:03.797Z,0.23
2023-03-01T16:11:37.777Z,0.30
2023-03-01T16:14:15.580Z,0.27
2023-03-01T16:16:45.621Z,0.27
2023-03-01T16:19:13.920Z,0.30
2023-03-01T16:21:43.972Z,0.23
2023-03-01T16:24:12.295Z,0.30
2023-03-01T16:26:40.486Z,0.27
2023-03-01T16:29:08.517Z,0.20
2023-03-01T16:31:40.722Z,0.20
2023-03-01T16:34:08.962Z,0.30
2023-03-01T16:36:38.358Z,0.30
2023-03-01T16:39:07.604Z,0.30
2023-03-01T16:41:35.961Z,0.30
2023-03-01T16:44:05.349Z,0.30
2023-03-01T16:46:37.718Z,0.30
2023-03-01T16:49:16.051Z,0.33
2023-03-01T16:51:45.308Z,0.30
2023-03-01T16:54:13.497Z,0.40
2023-03-01T16:56:41.525Z,0.30
2023-03-01T16:59:55.417Z,0.40
2023-03-01T17:02:23.786Z,0.37
2023-03-01T17:04:56.649Z,0.30
2023-03-01T17:07:34.224Z,0.40
2023-03-01T17:10:02.652Z,0.40
2023-03-01T17:13:13.721Z,0.40
2023-03-01T17:15:42.732Z,0.40
2023-03-01T17:18:13.336Z,0.50
2023-03-01T17:20:43.722Z,0.40
2023-03-01T17:23:12.077Z,0.33
2023-03-01T17:25:45.267Z,0.50
2023-03-01T17:28:13.627Z,0.50
2023-03-01T17:30:48.565Z,0.50
2023-03-01T17:33:18.404Z,0.30
2023-03-01T17:35:53.149Z,0.47
2023-03-01T17:38:29.891Z,0.47
2023-03-01T17:41:02.818Z,0.50
2023-03-01T17:43:34.493Z,0.50
2023-03-01T17:46:03.101Z,0.50
2023-03-01T17:48:31.874Z,0.50
2023-03-01T17:51:01.225Z,0.40
2023-03-01T17:53:30.007Z,0.40
2023-03-01T17:56:03.042Z,0.50
2023-03-01T17:58:32.563Z,0.50
2023-03-01T18:01:10.059Z,0.50
2023-03-01T18:03:41.541Z,0.50
2023-03-01T18:06:15.676Z,0.40
2023-03-01T18:08:50.999Z,0.60
2023-03-01T18:11:20.854Z,0.43
2023-03-01T18:13:51.469Z,0.40
2023-03-01T18:16:21.927Z,0.40
2023-03-01T18:18:56.659Z,0.40
2023-03-01T18:21:27.194Z,0.60
2023-03-01T18:23:55.839Z,0.50
2023-03-01T18:26:25.268Z,0.40
2023-03-01T18:28:54.010Z,0.40
2023-03-01T18:31:23.444Z,0.40
2023-03-01T18:33:55.958Z,0.40
2023-03-01T18:36:27.524Z,0.30
2023-03-01T18:38:57.018Z,0.40
2023-03-01T18:41:26.524Z,0.50
2023-03-01T18:43:55.856Z,0.40
2023-03-01T18:46:25.859Z,0.50
2023-03-01T18:48:54.840Z,0.47
2023-03-01T18:51:32.557Z,0.30
2023-03-01T18:54:02.341Z,0.50
2023-03-01T18:56:34.583Z,0.40
2023-03-01T18:59:04.448Z,0.40
2023-03-01T19:01:37.313Z,0.40
2023-03-01T19:04:06.419Z,0.40
2023-03-01T19:06:36.602Z,0.40
2023-03-01T19:09:05.810Z,0.40
2023-03-01T19:11:35.594Z,0.50
2023-03-01T19:14:04.761Z,0.40
2023-03-01T19:16:35.821Z,0.40
2023-03-01T19:19:08.452Z,0.40
2023-03-01T19:21:40.716Z,0.43
2023-03-01T19:24:09.171Z,0.40
2023-03-01T19:26:37.353Z,0.40
2023-03-01T19:29:06.289Z,0.40
2023-03-01T19:31:35.655Z,0.50
2023-03-01T19:34:12.489Z,0.50
2023-03-01T19:36:43.536Z,0.40
2023-03-01T19:39:13.974Z,0.47
2023-03-01T19:41:43.019Z,0.50
2023-03-01T19:44:11.295Z,0.40
2023-03-01T19:46:39.514Z,0.50
2023-03-01T19:49:08.335Z,0.40
2023-03-01T19:51:38.934Z,0.40
2023-03-01T19:54:09.825Z,0.40
2023-03-01T19:56:38.092Z,0.30
2023-03-01T19:59:07.038Z,0.40
2023-03-01T20:01:38.233Z,0.40
2023-03-01T20:04:17.627Z,0.40
2023-03-01T20:06:46.898Z,0.40
2023-03-01T20:09:21.850Z,0.30
2023-03-01T20:11:50.555Z,0.40
2023-03-01T20:14:25.557Z,0.37
2023-03-01T20:17:02.372Z,0.37
2023-03-01T20:19:36.714Z,0.40
2023-03-01T20:22:04.746Z,0.40
2023-03-01T20:24:36.100Z,0.40
2023-03-01T20:27:07.881Z,0.40
2023-03-01T20:29:36.893Z,0.40
2023-03-01T20:32:05.400Z,0.50
2023-03-01T20:34:33.501Z,0.40
2023-03-01T20:37:03.148Z,0.40
2023-03-01T20:39:32.290Z,0.40
2023-03-01T20:42:01.685Z,0.30
2023-03-01T20:44:29.560Z,0.40
2023-03-01T20:47:05.854Z,0.40
2023-03-01T20:49:34.054Z,0.50
2023-03-01T20:52:03.287Z,0.40
2023-03-01T20:54:33.413Z,0.40
2023-03-01T20:57:02.910Z,0.40
2023-03-01T20:59:32.012Z,0.40
2023-03-01T21:02:00.644Z,0.40
2023-03-01T21:04:28.716Z,0.37
2023-03-01T21:06:57.843Z,0.30
2023-03-01T21:09:26.240Z,0.30
2023-03-01T21:11:56.525Z,0.47
2023-03-01T21:14:25.939Z,0.40
2023-03-01T21:16:54.098Z,0.30
2023-03-01T21:19:26.010Z,0.40
2023-03-01T21:21:54.212Z,0.40
2023-03-01T21:24:22.232Z,0.30
2023-03-01T21:26:50.404Z,0.50
2023-03-01T21:29:18.381Z,0.40
2023-03-01T21:31:48.075Z,0.40
2023-03-01T21:34:16.087Z,0.43
2023-03-01T21:36:44.044Z,0.40
2023-03-01T21:39:12.898Z,0.40
2023-03-01T21:41:41.892Z,0.30
2023-03-01T21:44:10.927Z,0.50
2023-03-01T21:46:40.401Z,0.40
2023-03-01T21:49:11.530Z,0.30
2023-03-01T21:51:41.506Z,0.40
2023-03-01T21:54:12.518Z,0.40
2023-03-01T21:56:40.768Z,0.40
2023-03-01T21:59:15.039Z,0.50
2023-03-01T22:01:44.700Z,0.40
2023-03-01T22:04:14.952Z,0.30
2023-03-01T22:06:44.966Z,0.50
2023-03-01T22:09:16.352Z,0.50
2023-03-01T22:11:46.487Z,0.40
2023-03-01T22:14:14.601Z,0.40
2023-03-01T22:16:47.754Z,0.30
2023-03-01T22:19:18.420Z,0.40
2023-03-01T22:21:49.232Z,0.40
2023-03-01T22:24:17.770Z,0.30
2023-03-01T22:26:47.833Z,0.40
2023-03-01T22:29:18.083Z,0.50
2023-03-01T22:31:46.206Z,0.50
2023-03-01T22:34:14.983Z,0.40
2023-03-01T22:36:47.678Z,0.40
2023-03-01T22:39:17.768Z,0.30
2023-03-01T22:41:47.362Z,0.40
2023-03-01T22:44:20.581Z,0.40
2023-03-01T22:46:49.001Z,0.40
2023-03-01T22:49:18.580Z,0.50
2023-03-01T22:51:48.579Z,0.40
2023-03-01T22:54:18.717Z,0.40
2023-03-01T22:56:47.452Z,0.40
2023-03-01T22:59:18.940Z,0.40
2023-03-01T23:01:48.638Z,0.40
2023-03-01T23:04:17.082Z,0.40
2023-03-01T23:06:53.796Z,0.30
2023-03-01T23:09:25.549Z,0.40
2023-03-01T23:11:55.803Z,0.40
2023-03-01T23:14:24.082Z,0.33
2023-03-01T23:16:53.098Z,0.40
2023-03-01T23:19:21.422Z,0.50
2023-03-01T23:21:50.636Z,0.40
2023-03-01T23:24:20.834Z,0.50
2023-03-01T23:26:53.391Z,0.40
2023-03-01T23:29:23.233Z,0.40
2023-03-01T23:31:51.296Z,0.40
2023-03-01T23:34:21.029Z,0.50
2023-03-01T23:36:49.077Z,0.40
2023-03-01T23:39:19.106Z,0.40
2023-03-01T23:41:48.362Z,0.40
2023-03-01T23:44:19.853Z,0.40
2023-03-01T23:46:49.613Z,0.40
2023-03-01T23:49:19.433Z,0.40
2023-03-01T23:51:48.691Z,0.40
2023-03-01T23:54:19.515Z,0.40
2023-03-01T23:56:49.112Z,0.50
2023-03-01T23:59:21.943Z,0.40
